createdAt,value
2018-09-17T00:00:18.581Z,81.57
2018-09-17T00:01:18.572Z,81.81
2018-09-17T00:02:18.565Z,82.18
2018-09-17T00:03:18.592Z,81.91
2018-09-17T00:04:18.538Z,82.32
2018-09-17T00:05:18.705Z,81.67
2018-09-17T00:06:18.518Z,82.12
2018-09-17T00:07:18.506Z,81.60
2018-09-17T00:08:18.529Z,81.60
2018-09-17T00:09:18.484Z,81.91
2018-09-17T00:10:18.520Z,82.21
2018-09-17T00:11:18.601Z,82.01
2018-09-17T00:12:18.489Z,81.81
2018-09-17T00:13:18.443Z,81.30
2018-09-17T00:14:18.473Z,81.81
2018-09-17T00:15:18.419Z,81.81
2018-09-17T00:16:18.442Z,81.51
2018-09-17T00:17:18.478Z,81.30
2018-09-17T00:18:18.393Z,81.71
2018-09-17T00:19:18.438Z,81.10
2018-09-17T00:20:18.408Z,81.40
2018-09-17T00:21:18.355Z,81.71
2018-09-17T00:22:18.353Z,81.81
2018-09-17T00:23:18.334Z,80.90
2018-09-17T00:24:18.378Z,80.49
2018-09-17T00:25:18.347Z,80.59
2018-09-17T00:26:18.315Z,80.49
2018-09-17T00:27:18.395Z,80.29
2018-09-17T00:28:18.346Z,81.71
2018-09-17T00:29:18.296Z,81.95
2018-09-17T00:30:18.256Z,81.74
2018-09-17T00:31:18.248Z,82.12
2018-09-17T00:32:18.241Z,82.56
2018-09-17T00:33:18.226Z,82.97
2018-09-17T00:34:18.284Z,83.27
2018-09-17T00:35:18.287Z,83.89
2018-09-17T00:36:18.255Z,83.58
2018-09-17T00:37:18.180Z,83.48
2018-09-17T00:38:18.168Z,83.27
2018-09-17T00:39:18.161Z,83.72
2018-09-17T00:40:18.186Z,83.51
2018-09-17T00:41:18.137Z,84.03
2018-09-17T00:42:18.131Z,84.43
2018-09-17T00:43:18.114Z,84.12
2018-09-17T00:44:18.114Z,83.62
2018-09-17T00:45:18.116Z,84.74
2018-09-17T00:46:18.089Z,84.12
2018-09-17T00:47:18.072Z,85.35
2018-09-17T00:48:18.062Z,84.23
2018-09-17T00:49:18.053Z,84.33
2018-09-17T00:50:18.070Z,85.35
2018-09-17T00:51:18.027Z,85.69
2018-09-17T00:52:18.019Z,84.94
2018-09-17T00:53:18.009Z,86.10
2018-09-17T00:54:18.012Z,85.90
2018-09-17T00:55:17.985Z,86.41
2018-09-17T00:56:17.996Z,86.10
2018-09-17T00:57:17.964Z,86.21
2018-09-17T00:58:17.982Z,85.69
2018-09-17T00:59:17.941Z,85.80
2018-09-17T01:00:17.930Z,84.98
2018-09-17T01:01:17.942Z,85.60
2018-09-17T01:02:17.909Z,85.39
2018-09-17T01:03:17.903Z,86.21
2018-09-17T01:04:17.886Z,86.00
2018-09-17T01:05:17.875Z,86.15
2018-09-17T01:06:17.888Z,86.04
2018-09-17T01:07:17.862Z,86.04
2018-09-17T01:08:17.841Z,86.35
2018-09-17T01:09:17.834Z,86.04
2018-09-17T01:10:17.820Z,85.94
2018-09-17T01:11:17.832Z,85.77
2018-09-17T01:12:17.800Z,86.80
2018-09-17T01:13:17.788Z,87.00
2018-09-17T01:14:17.776Z,86.59
2018-09-17T01:15:17.765Z,86.90
2018-09-17T01:16:17.782Z,87.20
2018-09-17T01:17:17.758Z,86.90
2018-09-17T01:18:17.734Z,86.29
2018-09-17T01:19:17.722Z,86.49
2018-09-17T01:20:17.713Z,86.80
2018-09-17T01:21:17.723Z,86.49
2018-09-17T01:22:17.690Z,86.08
2018-09-17T01:23:17.681Z,85.88
2018-09-17T01:24:17.671Z,86.18
2018-09-17T01:25:17.657Z,86.08
2018-09-17T01:26:17.674Z,86.08
2018-09-17T01:27:17.636Z,85.68
2018-09-17T01:28:17.626Z,86.08
2018-09-17T01:29:17.617Z,86.29
2018-09-17T01:30:17.628Z,86.08
2018-09-17T01:31:17.594Z,86.39
2018-09-17T01:32:17.608Z,86.49
2018-09-17T01:33:17.571Z,86.90
2018-09-17T01:34:17.559Z,87.00
2018-09-17T01:35:17.550Z,87.41
2018-09-17T01:36:17.539Z,87.20
2018-09-17T01:37:17.555Z,87.61
2018-09-17T01:38:17.516Z,86.69
2018-09-17T01:39:17.506Z,86.90
2018-09-17T01:40:17.508Z,86.29
2018-09-17T01:41:17.485Z,86.18
2018-09-17T01:42:17.505Z,87.10
2018-09-17T01:43:17.465Z,86.29
2018-09-17T01:44:17.452Z,86.80
2018-09-17T01:45:17.441Z,87.00
2018-09-17T01:46:17.461Z,87.51
2018-09-17T01:47:17.421Z,88.22
2018-09-17T01:48:17.433Z,87.20
2018-09-17T01:49:17.398Z,88.12
2018-09-17T01:50:17.386Z,88.12
2018-09-17T01:51:17.375Z,88.06
2018-09-17T01:52:17.373Z,88.84
2018-09-17T01:53:17.389Z,89.90
2018-09-17T01:54:17.344Z,89.34
2018-09-17T01:55:17.331Z,89.55
2018-09-17T01:56:17.322Z,88.53
2018-09-17T01:57:17.311Z,88.06
2018-09-17T01:58:17.323Z,89.39
2018-09-17T01:59:17.292Z,88.98
2018-09-17T02:00:17.280Z,90.00
2018-09-17T02:01:17.270Z,88.88
2018-09-17T02:02:17.255Z,88.67
2018-09-17T02:03:17.293Z,89.39
2018-09-17T02:04:17.235Z,89.69
2018-09-17T02:05:17.224Z,88.98
2018-09-17T02:06:17.213Z,90.20
2018-09-17T02:07:17.207Z,90.04
2018-09-17T02:08:17.191Z,89.73
2018-09-17T02:09:17.206Z,89.84
2018-09-17T02:10:17.171Z,90.04
2018-09-17T02:11:17.161Z,89.63
2018-09-17T02:12:17.149Z,89.84
2018-09-17T02:13:17.140Z,89.67
2018-09-17T02:14:17.157Z,90.19
2018-09-17T02:15:17.118Z,90.59
2018-09-17T02:16:17.109Z,90.19
2018-09-17T02:17:17.094Z,90.29
2018-09-17T02:18:17.087Z,90.43
2018-09-17T02:19:17.097Z,90.74
2018-09-17T02:20:17.062Z,91.15
2018-09-17T02:21:17.054Z,91.25
2018-09-17T02:22:17.042Z,91.35
2018-09-17T02:23:17.030Z,92.11
2018-09-17T02:24:17.051Z,91.76
2018-09-17T02:25:17.009Z,90.94
2018-09-17T02:26:17.005Z,90.94
2018-09-17T02:27:16.988Z,90.84
2018-09-17T02:28:16.978Z,90.33
2018-09-17T02:29:16.967Z,90.39
2018-09-17T02:30:16.980Z,89.47
2018-09-17T02:31:16.948Z,90.19
2018-09-17T02:32:16.935Z,89.98
2018-09-17T02:33:16.924Z,90.08
2018-09-17T02:34:16.913Z,89.67
2018-09-17T02:35:16.929Z,89.67
2018-09-17T02:36:16.913Z,90.19
2018-09-17T02:37:16.882Z,89.67
2018-09-17T02:38:16.884Z,90.29
2018-09-17T02:39:16.862Z,90.70
2018-09-17T02:40:16.877Z,90.90
2018-09-17T02:41:16.841Z,91.11
2018-09-17T02:42:16.829Z,91.31
2018-09-17T02:43:16.824Z,91.31
2018-09-17T02:44:16.808Z,91.00
2018-09-17T02:45:16.798Z,91.11
2018-09-17T02:46:16.811Z,91.00
2018-09-17T02:47:16.777Z,91.11
2018-09-17T02:48:16.765Z,90.70
2018-09-17T02:49:16.776Z,91.11
2018-09-17T02:50:16.746Z,91.52
2018-09-17T02:51:16.758Z,91.31
2018-09-17T02:52:16.725Z,91.20
2018-09-17T02:53:16.713Z,91.52
2018-09-17T02:54:16.709Z,91.41
2018-09-17T02:55:16.691Z,91.25
2018-09-17T02:56:16.711Z,91.52
2018-09-17T02:57:16.670Z,91.41
2018-09-17T02:58:16.662Z,91.61
2018-09-17T02:59:16.674Z,91.52
2018-09-17T03:00:16.639Z,91.52
2018-09-17T03:01:16.626Z,91.76
2018-09-17T03:02:16.642Z,91.46
2018-09-17T03:03:16.606Z,91.05
2018-09-17T03:04:16.594Z,91.25
2018-09-17T03:05:16.584Z,91.25
2018-09-17T03:06:16.578Z,91.05
2018-09-17T03:07:16.586Z,91.66
2018-09-17T03:08:16.551Z,91.25
2018-09-17T03:09:16.541Z,91.35
2018-09-17T03:10:16.530Z,90.84
2018-09-17T03:11:16.519Z,90.94
2018-09-17T03:12:16.553Z,91.46
2018-09-17T03:13:16.497Z,91.25
2018-09-17T03:14:16.488Z,90.74
2018-09-17T03:15:16.480Z,90.94
2018-09-17T03:16:16.476Z,90.02
2018-09-17T03:17:16.480Z,90.12
2018-09-17T03:18:16.448Z,90.43
2018-09-17T03:19:16.434Z,91.66
2018-09-17T03:20:16.424Z,91.15
2018-09-17T03:21:16.436Z,91.35
2018-09-17T03:22:16.439Z,91.25
2018-09-17T03:23:16.395Z,91.56
2018-09-17T03:24:16.384Z,91.56
2018-09-17T03:25:16.373Z,91.56
2018-09-17T03:26:16.360Z,91.25
2018-09-17T03:27:16.397Z,91.46
2018-09-17T03:28:16.337Z,91.56
2018-09-17T03:29:16.326Z,91.66
2018-09-17T03:30:16.315Z,91.56
2018-09-17T03:31:16.304Z,92.17
2018-09-17T03:32:16.299Z,92.07
2018-09-17T03:33:16.309Z,92.78
2018-09-17T03:34:16.273Z,92.17
2018-09-17T03:35:16.272Z,92.27
2018-09-17T03:36:16.249Z,91.76
2018-09-17T03:37:16.239Z,92.47
2018-09-17T03:38:16.264Z,92.47
2018-09-17T03:39:16.222Z,92.93
2018-09-17T03:40:16.207Z,92.99
2018-09-17T03:41:16.196Z,92.78
2018-09-17T03:42:16.186Z,93.29
2018-09-17T03:43:16.177Z,93.24
2018-09-17T03:44:16.188Z,93.40
2018-09-17T03:45:16.168Z,93.40
2018-09-17T03:46:16.181Z,92.58
2018-09-17T03:47:16.133Z,93.09
2018-09-17T03:48:16.123Z,92.58
2018-09-17T03:49:16.134Z,92.78
2018-09-17T03:50:16.100Z,93.19
2018-09-17T03:51:16.090Z,91.96
2018-09-17T03:52:16.080Z,92.58
2018-09-17T03:53:16.070Z,92.17
2018-09-17T03:54:16.094Z,92.17
2018-09-17T03:55:16.051Z,93.40
2018-09-17T03:56:16.041Z,92.58
2018-09-17T03:57:16.026Z,92.88
2018-09-17T03:58:16.021Z,92.58
2018-09-17T03:59:16.007Z,93.09
2018-09-17T04:00:16.018Z,93.09
2018-09-17T04:01:15.984Z,93.13
2018-09-17T04:02:15.973Z,93.09
2018-09-17T04:03:15.964Z,93.29
2018-09-17T04:04:15.952Z,93.44
2018-09-17T04:05:15.967Z,93.65
2018-09-17T04:06:15.929Z,93.13
2018-09-17T04:07:15.920Z,92.72
2018-09-17T04:08:15.914Z,92.93
2018-09-17T04:09:15.898Z,92.83
2018-09-17T04:10:15.911Z,92.88
2018-09-17T04:11:15.876Z,93.33
2018-09-17T04:12:15.868Z,92.93
2018-09-17T04:13:15.855Z,92.58
2018-09-17T04:14:15.845Z,93.44
2018-09-17T04:15:15.861Z,93.24
2018-09-17T04:16:15.823Z,93.24
2018-09-17T04:17:15.812Z,93.54
2018-09-17T04:18:15.824Z,93.33
2018-09-17T04:19:15.791Z,93.95
2018-09-17T04:20:15.780Z,93.59
2018-09-17T04:21:15.794Z,93.65
2018-09-17T04:22:15.759Z,93.89
2018-09-17T04:23:15.748Z,93.89
2018-09-17T04:24:15.741Z,94.46
2018-09-17T04:25:15.726Z,94.40
2018-09-17T04:26:15.741Z,94.15
2018-09-17T04:27:15.704Z,94.15
2018-09-17T04:28:15.693Z,94.10
2018-09-17T04:29:15.682Z,93.95
2018-09-17T04:30:15.672Z,93.99
2018-09-17T04:31:15.694Z,94.10
2018-09-17T04:32:15.651Z,93.99
2018-09-17T04:33:15.639Z,94.36
2018-09-17T04:34:15.632Z,93.65
2018-09-17T04:35:15.623Z,93.44
2018-09-17T04:36:15.612Z,93.89
2018-09-17T04:37:15.634Z,94.20
2018-09-17T04:38:15.587Z,93.99
2018-09-17T04:39:15.576Z,93.69
2018-09-17T04:40:15.566Z,94.10
2018-09-17T04:41:15.586Z,93.99
2018-09-17T04:42:15.568Z,93.99
2018-09-17T04:43:15.532Z,93.48
2018-09-17T04:44:15.522Z,93.89
2018-09-17T04:45:15.513Z,93.38
2018-09-17T04:46:15.501Z,94.10
2018-09-17T04:47:15.513Z,94.10
2018-09-17T04:48:15.477Z,93.79
2018-09-17T04:49:15.469Z,93.89
2018-09-17T04:50:15.460Z,94.30
2018-09-17T04:51:15.449Z,94.71
2018-09-17T04:52:15.469Z,93.89
2018-09-17T04:53:15.428Z,94.10
2018-09-17T04:54:15.430Z,93.99
2018-09-17T04:55:15.406Z,93.89
2018-09-17T04:56:15.440Z,94.40
2018-09-17T04:57:15.414Z,94.30
2018-09-17T04:58:15.395Z,94.20
2018-09-17T04:59:15.362Z,94.10
2018-09-17T05:00:15.349Z,94.40
2018-09-17T05:01:15.338Z,93.99
2018-09-17T05:02:15.331Z,94.30
2018-09-17T05:03:15.344Z,94.51
2018-09-17T05:04:15.323Z,94.40
2018-09-17T05:05:15.299Z,94.30
2018-09-17T05:06:15.286Z,95.22
2018-09-17T05:07:15.330Z,94.60
2018-09-17T05:08:15.290Z,94.40
2018-09-17T05:09:15.253Z,94.10
2018-09-17T05:10:15.247Z,94.40
2018-09-17T05:11:15.231Z,95.02
2018-09-17T05:12:15.228Z,95.53
2018-09-17T05:13:15.387Z,95.53
2018-09-17T05:14:15.200Z,95.63
2018-09-17T05:15:15.191Z,94.81
2018-09-17T05:16:15.182Z,95.22
2018-09-17T05:17:15.175Z,95.63
2018-09-17T05:18:15.159Z,95.73
2018-09-17T05:19:15.169Z,95.63
2018-09-17T05:20:15.142Z,95.02
2018-09-17T05:21:15.131Z,95.53
2018-09-17T05:22:15.121Z,95.69
2018-09-17T05:23:15.102Z,95.32
2018-09-17T05:24:15.116Z,95.22
2018-09-17T05:25:15.083Z,94.51
2018-09-17T05:26:15.070Z,94.36
2018-09-17T05:27:15.075Z,94.40
2018-09-17T05:28:15.074Z,93.95
2018-09-17T05:29:15.076Z,94.46
2018-09-17T05:30:15.028Z,94.46
2018-09-17T05:31:15.016Z,94.46
2018-09-17T05:32:15.010Z,93.95
2018-09-17T05:33:15.001Z,93.95
2018-09-17T05:34:14.985Z,94.10
2018-09-17T05:35:14.998Z,94.20
2018-09-17T05:36:14.968Z,94.06
2018-09-17T05:37:14.952Z,94.26
2018-09-17T05:38:14.947Z,94.15
2018-09-17T05:39:14.937Z,94.15
2018-09-17T05:40:14.961Z,94.15
2018-09-17T05:41:14.911Z,93.85
2018-09-17T05:42:14.901Z,93.74
2018-09-17T05:43:14.890Z,93.54
2018-09-17T05:44:14.878Z,93.95
2018-09-17T05:45:14.921Z,93.85
2018-09-17T05:46:14.858Z,93.65
2018-09-17T05:47:14.848Z,93.33
2018-09-17T05:48:14.836Z,93.91
2018-09-17T05:49:14.826Z,93.44
2018-09-17T05:50:14.828Z,93.24
2018-09-17T05:51:14.839Z,93.60
2018-09-17T05:52:14.793Z,93.70
2018-09-17T05:53:14.781Z,93.29
2018-09-17T05:54:14.771Z,93.60
2018-09-17T05:55:14.761Z,93.40
2018-09-17T05:56:14.775Z,93.13
2018-09-17T05:57:14.740Z,93.09
2018-09-17T05:58:14.728Z,93.40
2018-09-17T05:59:14.721Z,92.99
2018-09-17T06:00:14.743Z,93.50
2018-09-17T06:01:14.700Z,93.19
2018-09-17T06:02:14.704Z,93.09
2018-09-17T06:03:14.677Z,93.29
2018-09-17T06:04:14.664Z,93.29
2018-09-17T06:05:14.654Z,92.58
2018-09-17T06:06:14.669Z,93.19
2018-09-17T06:07:14.634Z,92.88
2018-09-17T06:08:14.622Z,92.99
2018-09-17T06:09:14.610Z,93.19
2018-09-17T06:10:14.601Z,93.05
2018-09-17T06:11:14.615Z,91.92
2018-09-17T06:12:14.580Z,92.33
2018-09-17T06:13:14.568Z,92.74
2018-09-17T06:14:14.559Z,92.64
2018-09-17T06:15:14.565Z,92.43
2018-09-17T06:16:14.610Z,92.54
2018-09-17T06:17:14.573Z,91.67
2018-09-17T06:18:14.519Z,92.08
2018-09-17T06:19:14.506Z,91.98
2018-09-17T06:20:14.518Z,91.57
2018-09-17T06:21:14.509Z,91.47
2018-09-17T06:22:14.472Z,91.43
2018-09-17T06:23:14.509Z,90.66
2018-09-17T06:24:14.450Z,90.81
2018-09-17T06:25:14.464Z,91.22
2018-09-17T06:26:14.465Z,91.43
2018-09-17T06:27:14.423Z,90.31
2018-09-17T06:28:14.409Z,89.55
2018-09-17T06:29:14.398Z,89.61
2018-09-17T06:30:14.432Z,88.28
2018-09-17T06:31:14.380Z,86.92
2018-09-17T06:32:14.410Z,86.47
2018-09-17T06:33:14.357Z,86.22
2018-09-17T06:34:14.344Z,85.47
2018-09-17T06:35:14.339Z,84.05
2018-09-17T06:36:14.378Z,83.95
2018-09-17T06:37:14.341Z,83.54
2018-09-17T06:38:14.310Z,83.50
2018-09-17T06:39:14.290Z,83.29
2018-09-17T06:40:14.281Z,83.36
2018-09-17T06:41:14.267Z,81.84
2018-09-17T06:42:14.258Z,81.70
2018-09-17T06:43:14.277Z,80.37
2018-09-17T06:44:14.236Z,80.03
2018-09-17T06:45:14.229Z,80.19
2018-09-17T06:46:14.220Z,78.44
2018-09-17T06:47:14.208Z,77.14
2018-09-17T06:48:14.240Z,75.79
2018-09-17T06:49:14.182Z,74.37
2018-09-17T06:50:14.173Z,74.17
2018-09-17T06:51:14.163Z,74.57
2018-09-17T06:52:14.153Z,74.37
2018-09-17T06:53:14.168Z,74.91
2018-09-17T06:54:14.129Z,76.37
2018-09-17T06:55:14.117Z,77.42
2018-09-17T06:56:14.107Z,78.47
2018-09-17T06:57:14.097Z,79.83
2018-09-17T06:58:14.122Z,80.27
2018-09-17T06:59:14.080Z,81.39
2018-09-17T07:00:14.064Z,81.79
2018-09-17T07:01:14.054Z,81.63
2018-09-17T07:02:14.043Z,81.53
2018-09-17T07:03:14.036Z,81.84
2018-09-17T07:04:14.043Z,81.33
2018-09-17T07:05:14.010Z,81.73
2018-09-17T07:06:14.013Z,81.53
2018-09-17T07:07:13.989Z,81.93
2018-09-17T07:08:13.981Z,82.54
2018-09-17T07:09:13.991Z,81.23
2018-09-17T07:10:13.957Z,81.87
2018-09-17T07:11:13.950Z,82.14
2018-09-17T07:12:13.941Z,82.04
2018-09-17T07:13:13.925Z,81.23
2018-09-17T07:14:13.943Z,81.73
2018-09-17T07:15:13.908Z,81.63
2018-09-17T07:16:13.896Z,82.04
2018-09-17T07:17:13.882Z,81.84
2018-09-17T07:18:13.877Z,81.02
2018-09-17T07:19:13.862Z,80.88
2018-09-17T07:20:13.874Z,81.43
2018-09-17T07:21:13.857Z,81.39
2018-09-17T07:22:13.833Z,81.59
2018-09-17T07:23:13.818Z,81.49
2018-09-17T07:24:13.811Z,81.35
2018-09-17T07:25:13.869Z,81.15
2018-09-17T07:26:13.785Z,81.19
2018-09-17T07:27:13.780Z,80.94
2018-09-17T07:28:13.765Z,80.24
2018-09-17T07:29:13.753Z,80.30
2018-09-17T07:30:13.779Z,79.69
2018-09-17T07:31:13.739Z,79.99
2018-09-17T07:32:13.723Z,78.98
2018-09-17T07:33:13.712Z,79.38
2018-09-17T07:34:13.706Z,79.28
2018-09-17T07:35:13.689Z,79.79
2018-09-17T07:36:13.734Z,78.98
2018-09-17T07:37:13.680Z,78.74
2018-09-17T07:38:13.657Z,78.84
2018-09-17T07:39:13.647Z,77.93
2018-09-17T07:40:13.636Z,79.04
2018-09-17T07:41:13.650Z,78.53
2018-09-17T07:42:13.613Z,78.13
2018-09-17T07:43:13.602Z,78.44
2018-09-17T07:44:13.606Z,78.33
2018-09-17T07:45:13.581Z,77.89
2018-09-17T07:46:13.598Z,78.30
2018-09-17T07:47:13.565Z,77.79
2018-09-17T07:48:13.550Z,77.48
2018-09-17T07:49:13.542Z,77.45
2018-09-17T07:50:13.529Z,77.45
2018-09-17T07:51:13.554Z,77.45
2018-09-17T07:52:13.519Z,77.14
2018-09-17T07:53:13.574Z,76.64
2018-09-17T07:54:13.483Z,76.43
2018-09-17T07:55:13.561Z,76.70
2018-09-17T07:56:13.464Z,76.50
2018-09-17T07:57:13.476Z,75.49
2018-09-17T07:58:13.442Z,75.28
2018-09-17T07:59:13.433Z,75.28
2018-09-17T08:00:13.421Z,75.35
2018-09-17T08:01:13.406Z,74.64
2018-09-17T08:02:13.421Z,75.35
2018-09-17T08:03:13.386Z,74.64
2018-09-17T08:04:13.386Z,74.44
2018-09-17T08:05:13.365Z,74.24
2018-09-17T08:06:13.353Z,74.20
2018-09-17T08:07:13.405Z,73.49
2018-09-17T08:08:13.339Z,72.68
2018-09-17T08:09:13.325Z,72.95
2018-09-17T08:10:13.314Z,72.14
2018-09-17T08:11:13.300Z,72.24
2018-09-17T08:12:13.320Z,71.70
2018-09-17T08:13:13.278Z,70.59
2018-09-17T08:14:13.271Z,71.09
2018-09-17T08:15:13.255Z,70.89
2018-09-17T08:16:13.246Z,70.56
2018-09-17T08:17:13.233Z,70.46
2018-09-17T08:18:13.248Z,70.36
2018-09-17T08:19:13.212Z,70.93
2018-09-17T08:20:13.210Z,70.83
2018-09-17T08:21:13.195Z,70.32
2018-09-17T08:22:13.180Z,70.83
2018-09-17T08:23:13.193Z,69.42
2018-09-17T08:24:13.161Z,70.79
2018-09-17T08:25:13.149Z,69.18
2018-09-17T08:26:13.138Z,68.37
2018-09-17T08:27:13.137Z,68.57
2018-09-17T08:28:13.147Z,68.33
2018-09-17T08:29:13.106Z,68.95
2018-09-17T08:30:13.110Z,68.84
2018-09-17T08:31:13.176Z,68.84
2018-09-17T08:32:13.079Z,68.44
2018-09-17T08:33:13.069Z,67.53
2018-09-17T08:34:13.077Z,67.50
2018-09-17T08:35:13.043Z,67.19
2018-09-17T08:36:13.034Z,67.70
2018-09-17T08:37:13.022Z,67.10
2018-09-17T08:38:13.034Z,67.47
2018-09-17T08:39:13.025Z,66.25
2018-09-17T08:40:13.010Z,65.75
2018-09-17T08:41:12.977Z,65.95
2018-09-17T08:42:12.968Z,66.05
2018-09-17T08:43:12.957Z,66.22
2018-09-17T08:44:12.972Z,66.42
2018-09-17T08:45:12.935Z,66.63
2018-09-17T08:46:12.924Z,65.52
2018-09-17T08:47:12.917Z,65.92
2018-09-17T08:48:12.907Z,66.09
2018-09-17T08:49:12.923Z,66.30
2018-09-17T08:50:12.886Z,65.79
2018-09-17T08:51:12.873Z,65.29
2018-09-17T08:52:12.922Z,65.06
2018-09-17T08:53:12.950Z,64.25
2018-09-17T08:54:12.845Z,64.35
2018-09-17T08:55:12.867Z,63.45
2018-09-17T08:56:12.840Z,63.21
2018-09-17T08:57:12.835Z,63.31
2018-09-17T08:58:12.821Z,62.91
2018-09-17T08:59:12.801Z,63.31
2018-09-17T09:00:12.804Z,62.61
2018-09-17T09:01:12.760Z,62.78
2018-09-17T09:02:12.752Z,63.18
2018-09-17T09:03:12.761Z,62.68
2018-09-17T09:04:12.731Z,62.85
2018-09-17T09:05:12.759Z,62.05
2018-09-17T09:06:13.386Z,62.65
2018-09-17T09:07:12.719Z,63.15
2018-09-17T09:08:12.690Z,61.14
2018-09-17T09:09:12.674Z,60.84
2018-09-17T09:10:12.665Z,60.51
2018-09-17T09:11:12.685Z,60.81
2018-09-17T09:12:12.666Z,61.11
2018-09-17T09:13:12.631Z,61.01
2018-09-17T09:14:12.621Z,60.58
2018-09-17T09:15:12.607Z,60.18
2018-09-17T09:16:12.616Z,59.27
2018-09-17T09:17:12.611Z,59.78
2018-09-17T09:18:12.576Z,59.58
2018-09-17T09:19:12.566Z,59.34
2018-09-17T09:20:12.554Z,59.25
2018-09-17T09:21:12.544Z,58.94
2018-09-17T09:22:12.557Z,59.45
2018-09-17T09:23:12.521Z,59.42
2018-09-17T09:24:12.515Z,57.51
2018-09-17T09:25:12.501Z,57.71
2018-09-17T09:26:12.530Z,58.59
2018-09-17T09:27:12.511Z,57.48
2018-09-17T09:28:12.476Z,57.28
2018-09-17T09:29:12.457Z,57.79
2018-09-17T09:30:12.450Z,58.16
2018-09-17T09:31:12.444Z,56.85
2018-09-17T09:32:12.505Z,57.46
2018-09-17T09:33:12.416Z,57.66
2018-09-17T09:34:12.404Z,56.05
2018-09-17T09:35:12.395Z,57.03
2018-09-17T09:36:12.385Z,56.00
2018-09-17T09:37:12.373Z,55.50
2018-09-17T09:38:12.452Z,54.30
2018-09-17T09:39:12.369Z,52.47
2018-09-17T09:40:12.342Z,50.76
2018-09-17T09:41:12.330Z,52.27
2018-09-17T09:42:12.322Z,53.77
2018-09-17T09:43:12.342Z,54.17
2018-09-17T09:44:12.298Z,52.84
2018-09-17T09:45:12.287Z,52.04
2018-09-17T09:46:12.282Z,52.14
2018-09-17T09:47:12.269Z,50.92
2018-09-17T09:48:12.255Z,52.12
2018-09-17T09:49:12.299Z,51.62
2018-09-17T09:50:12.237Z,51.02
2018-09-17T09:51:12.234Z,50.09
2018-09-17T09:52:12.221Z,50.62
2018-09-17T09:53:12.204Z,51.12
2018-09-17T09:54:12.212Z,50.89
2018-09-17T09:55:12.182Z,50.89
2018-09-17T09:56:12.175Z,50.99
2018-09-17T09:57:12.160Z,50.49
2018-09-17T09:58:12.148Z,50.87
2018-09-17T09:59:12.173Z,50.27
2018-09-17T10:00:12.125Z,50.47
2018-09-17T10:01:12.115Z,51.17
2018-09-17T10:02:12.116Z,51.15
2018-09-17T10:03:12.097Z,50.74
2018-09-17T10:04:12.112Z,50.95
2018-09-17T10:05:12.073Z,49.85
2018-09-17T10:06:12.064Z,50.45
2018-09-17T10:07:12.054Z,50.52
2018-09-17T10:08:12.041Z,50.92
2018-09-17T10:09:12.060Z,50.40
2018-09-17T10:10:12.023Z,50.40
2018-09-17T10:11:12.009Z,50.00
2018-09-17T10:12:12.011Z,49.50
2018-09-17T10:13:11.990Z,48.68
2018-09-17T10:14:11.980Z,47.48
2018-09-17T10:15:11.994Z,47.88
2018-09-17T10:16:11.956Z,46.96
2018-09-17T10:17:11.944Z,47.06
2018-09-17T10:18:11.934Z,46.56
2018-09-17T10:19:11.930Z,46.24
2018-09-17T10:20:11.939Z,45.94
2018-09-17T10:21:11.909Z,45.34
2018-09-17T10:22:11.932Z,46.54
2018-09-17T10:23:11.883Z,46.81
2018-09-17T10:24:11.873Z,45.82
2018-09-17T10:25:11.904Z,46.22
2018-09-17T10:26:11.848Z,44.82
2018-09-17T10:27:11.838Z,43.43
2018-09-17T10:28:11.830Z,43.23
2018-09-17T10:29:11.830Z,44.23
2018-09-17T10:30:11.842Z,41.91
2018-09-17T10:31:11.796Z,43.21
2018-09-17T10:32:11.790Z,43.51
2018-09-17T10:33:11.794Z,43.30
2018-09-17T10:34:11.766Z,43.41
2018-09-17T10:35:11.801Z,43.21
2018-09-17T10:36:11.750Z,43.90
2018-09-17T10:37:11.731Z,43.80
2018-09-17T10:38:11.719Z,43.71
2018-09-17T10:39:11.710Z,43.19
2018-09-17T10:40:11.758Z,42.89
2018-09-17T10:41:11.692Z,43.19
2018-09-17T10:42:11.683Z,43.08
2018-09-17T10:43:11.681Z,42.89
2018-09-17T10:44:11.659Z,41.69
2018-09-17T10:45:11.668Z,42.99
2018-09-17T10:46:11.667Z,42.29
2018-09-17T10:47:11.631Z,41.30
2018-09-17T10:48:11.645Z,42.29
2018-09-17T10:49:11.602Z,42.69
2018-09-17T10:50:11.591Z,43.19
2018-09-17T10:51:11.605Z,43.19
2018-09-17T10:52:11.583Z,41.89
2018-09-17T10:53:11.561Z,41.79
2018-09-17T10:54:11.548Z,42.39
2018-09-17T10:55:11.559Z,41.60
2018-09-17T10:56:11.563Z,42.97
2018-09-17T10:57:11.529Z,43.07
2018-09-17T10:58:11.507Z,42.77
2018-09-17T10:59:11.497Z,42.97
2018-09-17T11:00:11.487Z,41.97
2018-09-17T11:01:11.476Z,41.77
2018-09-17T11:02:11.486Z,42.07
2018-09-17T11:03:11.452Z,42.57
2018-09-17T11:04:11.443Z,42.77
2018-09-17T11:05:11.436Z,41.87
2018-09-17T11:06:11.421Z,42.94
2018-09-17T11:07:11.442Z,41.25
2018-09-17T11:08:11.420Z,42.85
2018-09-17T11:09:11.392Z,41.95
2018-09-17T11:10:11.386Z,40.86
2018-09-17T11:11:11.370Z,41.53
2018-09-17T11:12:11.379Z,42.03
2018-09-17T11:13:11.349Z,41.44
2018-09-17T11:14:11.338Z,41.83
2018-09-17T11:15:11.325Z,41.14
2018-09-17T11:16:11.315Z,41.91
2018-09-17T11:17:11.340Z,41.71
2018-09-17T11:18:11.294Z,40.82
2018-09-17T11:19:11.283Z,41.39
2018-09-17T11:20:11.272Z,40.60
2018-09-17T11:21:11.289Z,40.78
2018-09-17T11:22:11.251Z,39.98
2018-09-17T11:23:11.275Z,40.41
2018-09-17T11:24:11.231Z,40.58
2018-09-17T11:25:11.255Z,40.28
2018-09-17T11:26:11.207Z,39.59
2018-09-17T11:27:11.201Z,39.59
2018-09-17T11:28:11.210Z,39.19
2018-09-17T11:29:11.177Z,38.68
2018-09-17T11:30:11.184Z,40.56
2018-09-17T11:31:11.175Z,39.37
2018-09-17T11:32:11.146Z,38.98
2018-09-17T11:33:11.167Z,39.25
2018-09-17T11:34:11.127Z,38.76
2018-09-17T11:35:11.116Z,39.45
2018-09-17T11:36:11.120Z,38.66
2018-09-17T11:37:11.093Z,39.45
2018-09-17T11:38:11.109Z,39.45
2018-09-17T11:39:11.073Z,38.76
2018-09-17T11:40:11.061Z,38.66
2018-09-17T11:41:11.095Z,38.26
2018-09-17T11:42:11.041Z,38.76
2018-09-17T11:43:11.034Z,38.44
2018-09-17T11:44:11.057Z,37.55
2018-09-17T11:45:11.008Z,38.84
2018-09-17T11:46:11.000Z,39.04
2018-09-17T11:47:10.989Z,38.05
2018-09-17T11:48:11.014Z,38.53
2018-09-17T11:49:10.990Z,37.26
2018-09-17T11:50:11.048Z,37.05
2018-09-17T11:51:11.026Z,38.03
2018-09-17T11:52:10.956Z,38.72
2018-09-17T11:53:10.934Z,38.42
2018-09-17T11:54:10.956Z,37.24
2018-09-17T11:55:10.903Z,37.12
2018-09-17T11:56:10.896Z,37.41
2018-09-17T11:57:10.885Z,38.68
2018-09-17T11:58:10.940Z,36.71
2018-09-17T11:59:10.859Z,36.88
2018-09-17T12:00:10.955Z,37.28
2018-09-17T12:01:10.842Z,36.27
2018-09-17T12:02:10.867Z,35.64
2018-09-17T12:03:10.834Z,34.33
2018-09-17T12:04:10.825Z,33.80
2018-09-17T12:05:10.847Z,32.89
2018-09-17T12:06:10.804Z,32.45
2018-09-17T12:07:10.781Z,31.25
2018-09-17T12:08:10.772Z,30.22
2018-09-17T12:09:10.823Z,29.83
2018-09-17T12:10:10.745Z,30.80
2018-09-17T12:11:10.780Z,29.22
2018-09-17T12:12:10.728Z,28.44
2018-09-17T12:13:10.717Z,28.41
2018-09-17T12:14:10.708Z,28.59
2018-09-17T12:15:10.702Z,28.68
2018-09-17T12:16:10.709Z,29.16
2018-09-17T12:17:10.700Z,28.38
2018-09-17T12:18:10.717Z,27.87
2018-09-17T12:19:10.657Z,27.77
2018-09-17T12:20:10.648Z,27.55
2018-09-17T12:21:10.666Z,26.86
2018-09-17T12:22:10.641Z,26.66
2018-09-17T12:23:10.630Z,25.68
2018-09-17T12:24:10.615Z,26.09
2018-09-17T12:25:10.605Z,26.87
2018-09-17T12:26:10.612Z,26.77
2018-09-17T12:27:10.587Z,25.90
2018-09-17T12:28:10.570Z,26.70
2018-09-17T12:29:10.567Z,28.06
2018-09-17T12:30:10.547Z,27.38
2018-09-17T12:31:10.539Z,27.10
2018-09-17T12:32:10.547Z,27.77
2018-09-17T12:33:10.514Z,27.78
2018-09-17T12:34:10.505Z,28.00
2018-09-17T12:35:10.495Z,28.09
2018-09-17T12:36:10.484Z,28.38
2018-09-17T12:37:10.533Z,27.78
2018-09-17T12:38:10.473Z,27.78
2018-09-17T12:39:10.466Z,27.78
2018-09-17T12:40:10.445Z,27.09
2018-09-17T12:41:10.442Z,27.56
2018-09-17T12:42:10.425Z,27.55
2018-09-17T12:43:10.439Z,25.72
2018-09-17T12:44:10.441Z,27.97
2018-09-17T12:45:11.086Z,27.75
2018-09-17T12:46:10.384Z,26.86
2018-09-17T12:47:10.377Z,25.89
2018-09-17T12:48:10.392Z,26.87
2018-09-17T12:49:10.370Z,27.75
2018-09-17T12:50:10.356Z,26.48
2018-09-17T12:51:10.366Z,26.88
2018-09-17T12:52:10.322Z,26.49